createdAt,value
2023-05-16T00:01:08.360Z,97160.31
2023-05-16T00:03:38.083Z,97162.34
2023-05-16T00:06:07.740Z,97156.94
2023-05-16T00:08:36.298Z,97147.47
2023-05-16T00:11:04.927Z,97157.38
2023-05-16T00:13:33.241Z,97155.56
2023-05-16T00:16:02.691Z,97154.63
2023-05-16T00:18:30.836Z,97152.94
2023-05-16T00:20:58.826Z,97152.09
2023-05-16T00:23:28.029Z,97155.69
2023-05-16T00:25:56.199Z,97161.78
2023-05-16T00:28:24.141Z,97161.94
2023-05-16T00:30:51.995Z,97152.66
2023-05-16T00:33:20.267Z,97163.47
2023-05-16T00:35:48.364Z,97162.03
2023-05-16T00:38:16.157Z,97162.97
2023-05-16T00:40:45.416Z,97167.50
2023-05-16T00:43:13.574Z,97167.72
2023-05-16T00:45:41.371Z,97160.78
2023-05-16T00:48:09.585Z,97156.66
2023-05-16T00:50:38.748Z,97141.84
2023-05-16T00:53:06.645Z,97144.69
2023-05-16T00:55:34.458Z,97157.00
2023-05-16T00:58:03.787Z,97154.69
2023-05-16T01:00:31.575Z,97154.69
2023-05-16T01:02:59.495Z,97160.91
2023-05-16T01:05:27.605Z,97154.91
2023-05-16T01:07:55.613Z,97167.13
2023-05-16T01:10:23.504Z,97155.75
2023-05-16T01:12:58.085Z,97163.97
2023-05-16T01:15:30.078Z,97170.94
2023-05-16T01:18:02.553Z,97167.31
2023-05-16T01:20:36.786Z,97169.00
2023-05-16T01:23:19.570Z,97172.38
2023-05-16T01:25:58.343Z,97179.63
2023-05-16T01:28:28.632Z,97173.97
2023-05-16T01:30:56.401Z,97166.25
2023-05-16T01:33:24.196Z,97163.50
2023-05-16T01:35:57.048Z,97167.41
2023-05-16T01:38:27.628Z,97182.06
2023-05-16T01:40:59.629Z,97183.09
2023-05-16T01:43:32.375Z,97189.31
2023-05-16T01:46:05.182Z,97190.47
2023-05-16T01:48:37.441Z,97180.91
2023-05-16T01:51:05.871Z,97186.16
2023-05-16T01:53:38.757Z,97181.09
2023-05-16T01:56:10.820Z,97175.75
2023-05-16T01:58:40.913Z,97174.91
2023-05-16T02:01:09.143Z,97179.44
2023-05-16T02:03:37.022Z,97183.97
2023-05-16T02:06:05.043Z,97190.25
2023-05-16T02:08:32.888Z,97183.22
2023-05-16T02:11:00.780Z,97187.53
2023-05-16T02:13:28.528Z,97185.84
2023-05-16T02:15:57.696Z,97192.28
2023-05-16T02:18:26.067Z,97186.06
2023-05-16T02:20:54.020Z,97178.28
2023-05-16T02:23:21.775Z,97185.63
2023-05-16T02:25:50.359Z,97187.94
2023-05-16T02:28:18.084Z,97187.00
2023-05-16T02:30:45.883Z,97190.69
2023-05-16T02:33:15.001Z,97195.09
2023-05-16T02:35:42.771Z,97181.00
2023-05-16T02:38:10.553Z,97184.56
2023-05-16T02:40:38.259Z,97187.28
2023-05-16T02:43:06.036Z,97193.53
2023-05-16T02:45:33.834Z,97198.78
2023-05-16T02:48:01.637Z,97198.88
2023-05-16T02:50:30.827Z,97188.56
2023-05-16T02:52:59.834Z,97194.91
2023-05-16T02:55:27.693Z,97185.94
2023-05-16T02:57:55.550Z,97195.94
2023-05-16T03:00:23.672Z,97202.22
2023-05-16T03:02:51.432Z,97192.56
2023-05-16T03:05:19.644Z,97198.88
2023-05-16T03:07:48.724Z,97200.66
2023-05-16T03:10:16.484Z,97204.94
2023-05-16T03:12:44.225Z,97203.28
2023-05-16T03:15:12.173Z,97217.16
2023-05-16T03:17:39.946Z,97210.44
2023-05-16T03:20:09.565Z,97218.22
2023-05-16T03:22:37.318Z,97219.25
2023-05-16T03:25:07.959Z,97213.25
2023-05-16T03:27:36.307Z,97218.41
2023-05-16T03:30:04.066Z,97208.97
2023-05-16T03:32:31.867Z,97212.41
2023-05-16T03:34:59.703Z,97209.16
2023-05-16T03:37:27.540Z,97209.16
2023-05-16T03:39:55.308Z,97205.69
2023-05-16T03:42:24.480Z,97210.09
2023-05-16T03:44:52.271Z,97212.81
2023-05-16T03:47:20.047Z,97212.19
2023-05-16T03:49:47.813Z,97221.78
2023-05-16T03:52:15.582Z,97193.31
2023-05-16T03:54:43.359Z,97222.72
2023-05-16T03:57:11.106Z,97224.41
2023-05-16T03:59:40.253Z,97224.50
2023-05-16T04:02:09.141Z,97220.94
2023-05-16T04:04:36.959Z,97220.09
2023-05-16T04:07:04.976Z,97224.50
2023-05-16T04:09:32.824Z,97233.63
2023-05-16T04:12:02.001Z,97228.06
2023-05-16T04:14:29.869Z,97232.28
2023-05-16T04:16:59.014Z,97234.06
2023-05-16T04:19:26.866Z,97231.72
2023-05-16T04:21:54.606Z,97234.91
2023-05-16T04:24:26.371Z,97238.25
2023-05-16T04:26:54.189Z,97233.00
2023-05-16T04:29:22.401Z,97220.69
2023-05-16T04:31:50.325Z,97247.66
2023-05-16T04:34:19.649Z,97253.66
2023-05-16T04:36:47.402Z,97260.72
2023-05-16T04:39:15.162Z,97258.19
2023-05-16T04:41:42.931Z,97260.72
2023-05-16T04:44:11.220Z,97261.84
2023-05-16T04:46:39.345Z,97269.63
2023-05-16T04:49:07.533Z,97267.19
2023-05-16T04:51:36.756Z,97280.25
2023-05-16T04:54:04.526Z,97272.66
2023-05-16T04:56:32.292Z,97278.94
2023-05-16T04:59:00.052Z,97278.13
2023-05-16T05:01:27.924Z,97289.03
2023-05-16T05:03:55.678Z,97283.97
2023-05-16T05:06:23.504Z,97287.47
2023-05-16T05:08:52.581Z,97287.34
2023-05-16T05:11:21.108Z,97292.59
2023-05-16T05:13:50.263Z,97286.63
2023-05-16T05:16:19.761Z,97287.72
2023-05-16T05:18:47.673Z,97291.31
2023-05-16T05:21:15.666Z,97289.81
2023-05-16T05:23:43.451Z,97282.03
2023-05-16T05:26:12.676Z,97282.34
2023-05-16T05:28:42.179Z,97290.94
2023-05-16T05:31:13.404Z,97288.03
2023-05-16T05:33:42.353Z,97291.31
2023-05-16T05:36:10.838Z,97292.06
2023-05-16T05:38:38.590Z,97293.94
2023-05-16T05:41:06.787Z,97291.50
2023-05-16T05:43:35.883Z,97296.88
2023-05-16T05:46:03.700Z,97296.00
2023-05-16T05:48:32.519Z,97300.34
2023-05-16T05:51:00.560Z,97306.22
2023-05-16T05:53:28.392Z,97302.31
2023-05-16T05:55:56.166Z,97299.03
2023-05-16T05:58:23.947Z,97303.63
2023-05-16T06:00:53.062Z,97298.50
2023-05-16T06:03:21.320Z,97307.09
2023-05-16T06:05:49.215Z,97307.50
2023-05-16T06:08:17.260Z,97314.34
2023-05-16T06:10:45.097Z,97316.88
2023-05-16T06:13:12.836Z,97309.72
2023-05-16T06:15:40.634Z,97321.31
2023-05-16T06:18:09.868Z,97328.44
2023-05-16T06:20:37.687Z,97331.16
2023-05-16T06:23:05.436Z,97331.16
2023-05-16T06:25:33.339Z,97334.53
2023-05-16T06:28:01.087Z,97333.13
2023-05-16T06:30:28.899Z,97343.72
2023-05-16T06:32:56.783Z,97351.44
2023-05-16T06:35:26.449Z,97355.94
2023-05-16T06:37:54.426Z,97350.94
2023-05-16T06:40:22.187Z,97356.31
2023-05-16T06:42:49.983Z,97347.50
2023-05-16T06:45:17.865Z,97352.94
2023-05-16T06:47:45.680Z,97348.31
2023-05-16T06:50:13.913Z,97348.81
2023-05-16T06:52:43.170Z,97331.16
2023-05-16T06:55:11.563Z,97345.03
2023-05-16T06:57:39.432Z,97345.44
2023-05-16T07:00:09.417Z,97328.72
2023-05-16T07:02:37.367Z,97351.31
2023-05-16T07:05:05.704Z,97352.16
2023-05-16T07:07:33.614Z,97360.41
2023-05-16T07:10:02.988Z,97350.84
2023-05-16T07:12:31.364Z,97355.72
2023-05-16T07:14:59.693Z,97363.34
2023-05-16T07:17:27.782Z,97367.75
2023-05-16T07:19:55.557Z,97370.47
2023-05-16T07:22:23.426Z,97376.75
2023-05-16T07:24:53.272Z,97354.06
2023-05-16T07:27:23.704Z,97382.13
2023-05-16T07:29:51.569Z,97376.75
2023-05-16T07:32:19.456Z,97377.72
2023-05-16T07:34:47.267Z,97382.22
2023-05-16T07:37:16.213Z,97380.69
2023-05-16T07:39:44.019Z,97389.88
2023-05-16T07:42:11.940Z,97386.16
2023-05-16T07:44:41.116Z,97397.50
2023-05-16T07:47:08.939Z,97394.50
2023-05-16T07:49:36.761Z,97414.66
2023-05-16T07:52:04.831Z,97406.78
2023-05-16T07:54:33.520Z,97412.41
2023-05-16T07:57:01.403Z,97421.22
2023-05-16T07:59:29.491Z,97426.09
2023-05-16T08:01:59.025Z,97425.06
2023-05-16T08:04:26.857Z,97429.47
2023-05-16T08:06:54.637Z,97424.78
2023-05-16T08:09:22.584Z,97435.88
2023-05-16T08:11:50.402Z,97440.25
2023-05-16T08:14:18.854Z,97438.09
2023-05-16T08:16:46.708Z,97433.50
2023-05-16T08:19:15.962Z,97448.81
2023-05-16T08:21:43.815Z,97447.22
2023-05-16T08:24:12.232Z,97453.31
2023-05-16T08:26:40.219Z,97458.19
2023-05-16T08:29:08.178Z,97464.22
2023-05-16T08:31:36.104Z,97458.94
2023-05-16T08:34:06.474Z,97451.47
2023-05-16T08:36:36.310Z,97458.59
2023-05-16T08:39:04.777Z,97457.09
2023-05-16T08:41:32.735Z,97450.41
2023-05-16T08:44:00.658Z,97450.91
2023-05-16T08:46:30.260Z,97466.84
2023-05-16T08:49:00.423Z,97452.22
2023-05-16T08:51:30.179Z,97444.88
2023-05-16T08:54:02.263Z,97453.69
2023-05-16T08:56:30.272Z,97440.16
2023-05-16T08:58:58.651Z,97461.94
2023-05-16T09:01:26.624Z,97469.09
2023-05-16T09:03:54.588Z,97450.97
2023-05-16T09:06:22.473Z,97476.75
2023-05-16T09:08:50.711Z,97469.59
2023-05-16T09:11:20.090Z,97481.72
2023-05-16T09:13:48.178Z,97474.75
2023-05-16T09:16:17.432Z,97477.09
2023-05-16T09:18:47.091Z,97469.88
2023-05-16T09:21:15.866Z,97484.69
2023-05-16T09:23:44.069Z,97480.31
2023-05-16T09:26:12.238Z,97473.25
2023-05-16T09:28:41.484Z,97478.97
2023-05-16T09:31:22.369Z,97472.44
2023-05-16T09:33:50.999Z,97481.75
2023-05-16T09:36:18.897Z,97483.25
2023-05-16T09:38:46.744Z,97490.78
2023-05-16T09:41:14.808Z,97489.25
2023-05-16T09:43:45.211Z,97486.56
2023-05-16T09:46:16.689Z,97483.72
2023-05-16T09:48:46.415Z,97491.53
2023-05-16T09:51:14.985Z,97490.34
2023-05-16T09:53:43.148Z,97493.16
2023-05-16T09:56:12.717Z,97486.56
2023-05-16T09:58:41.792Z,97495.09
2023-05-16T10:01:11.958Z,97498.03
2023-05-16T10:03:41.221Z,97501.22
2023-05-16T10:06:09.517Z,97492.97
2023-05-16T10:08:38.307Z,97504.31
2023-05-16T10:11:07.185Z,97497.38
2023-05-16T10:13:36.875Z,97500.81
2023-05-16T10:16:08.822Z,97495.56
2023-05-16T10:18:39.961Z,97499.00
2023-05-16T10:21:11.198Z,97503.06
2023-05-16T10:23:42.543Z,97462.13
2023-05-16T10:26:10.895Z,97496.13
2023-05-16T10:28:39.065Z,97497.16
2023-05-16T10:31:07.258Z,97480.06
2023-05-16T10:33:38.809Z,97499.88
2023-05-16T10:36:07.281Z,97501.38
2023-05-16T10:38:35.655Z,97505.47
2023-05-16T10:41:03.702Z,97503.19
2023-05-16T10:43:33.429Z,97506.00
2023-05-16T10:46:04.827Z,97503.63
2023-05-16T10:48:33.669Z,97516.13
2023-05-16T10:51:04.173Z,97509.41
2023-05-16T10:53:34.015Z,97510.75
2023-05-16T10:56:12.227Z,97516.41
2023-05-16T10:58:48.811Z,97508.19
2023-05-16T11:01:24.517Z,97518.03
2023-05-16T11:04:10.315Z,97509.59
2023-05-16T11:06:53.454Z,97513.16
2023-05-16T11:09:28.522Z,97519.06
2023-05-16T11:11:58.652Z,97511.88
2023-05-16T11:14:28.916Z,97521.81
2023-05-16T11:17:02.258Z,97526.63
2023-05-16T11:19:32.631Z,97530.91
2023-05-16T11:22:24.250Z,97518.38
2023-05-16T11:24:54.508Z,97517.25
2023-05-16T11:27:24.478Z,97531.44
2023-05-16T11:29:52.571Z,97535.59
2023-05-16T11:32:22.852Z,97537.66
2023-05-16T11:34:51.247Z,97545.00
2023-05-16T11:37:21.776Z,97554.63
2023-05-16T11:39:49.945Z,97529.47
2023-05-16T11:42:18.978Z,97532.63
2023-05-16T11:44:46.881Z,97533.63
2023-05-16T11:47:14.723Z,97523.25
2023-05-16T11:49:43.313Z,97535.41
2023-05-16T11:52:11.410Z,97528.31
2023-05-16T11:54:42.407Z,97520.59
2023-05-16T11:57:10.459Z,97535.22
2023-05-16T11:59:38.453Z,97539.81
2023-05-16T12:02:07.048Z,97521.44
2023-05-16T12:04:35.213Z,97527.69
2023-05-16T12:07:03.987Z,97531.47
2023-05-16T12:09:31.836Z,97546.63
2023-05-16T12:12:01.091Z,97545.75
2023-05-16T12:14:28.978Z,97542.63
2023-05-16T12:16:57.032Z,97542.34
2023-05-16T12:19:25.348Z,97534.22
2023-05-16T12:21:56.131Z,97545.78
2023-05-16T12:24:30.966Z,97546.50
2023-05-16T12:27:00.133Z,97543.38
2023-05-16T12:29:27.961Z,97545.41
2023-05-16T12:31:55.995Z,97538.63
2023-05-16T12:34:24.365Z,97539.16
2023-05-16T12:36:53.529Z,97531.75
2023-05-16T12:39:21.616Z,97546.47
2023-05-16T12:41:49.462Z,97537.94
2023-05-16T12:44:19.885Z,97541.41
2023-05-16T12:46:49.767Z,97545.41
2023-05-16T12:49:21.038Z,97551.41
2023-05-16T12:51:52.658Z,97550.81
2023-05-16T12:54:22.867Z,97547.06
2023-05-16T12:56:52.115Z,97553.19
2023-05-16T12:59:21.338Z,97535.25
2023-05-16T13:01:49.218Z,97553.00
2023-05-16T13:04:20.215Z,97542.94
2023-05-16T13:06:58.588Z,97565.50
2023-05-16T13:09:32.112Z,97551.78
2023-05-16T13:12:01.026Z,97553.44
2023-05-16T13:14:30.243Z,97551.06
2023-05-16T13:16:58.053Z,97553.19
2023-05-16T13:19:26.260Z,97560.22
2023-05-16T13:21:54.244Z,97562.50
2023-05-16T13:24:22.050Z,97572.84
2023-05-16T13:26:49.844Z,97564.94
2023-05-16T13:29:17.618Z,97568.25
2023-05-16T13:31:46.929Z,97569.09
2023-05-16T13:34:14.865Z,97562.28
2023-05-16T13:36:53.687Z,97569.63
2023-05-16T13:39:23.024Z,97569.88
2023-05-16T13:41:51.571Z,97577.72
2023-05-16T13:44:19.667Z,97586.84
2023-05-16T13:46:48.928Z,97580.28
2023-05-16T13:49:16.872Z,97581.19
2023-05-16T13:51:44.614Z,97581.97
2023-05-16T13:54:12.459Z,97575.63
2023-05-16T13:56:40.462Z,97601.72
2023-05-16T13:59:09.632Z,97591.31
2023-05-16T14:01:38.672Z,97588.81
2023-05-16T14:04:07.987Z,97588.22
2023-05-16T14:06:35.867Z,97577.22
2023-05-16T14:09:03.976Z,97582.97
2023-05-16T14:11:31.796Z,97589.91
2023-05-16T14:13:59.610Z,97601.56
2023-05-16T14:16:27.696Z,97597.47
2023-05-16T14:18:55.943Z,97598.22
2023-05-16T14:21:25.153Z,97601.13
2023-05-16T14:23:52.953Z,97592.72
2023-05-16T14:26:24.673Z,97593.72
2023-05-16T14:28:52.547Z,97593.84
2023-05-16T14:31:20.641Z,97599.50
2023-05-16T14:33:48.577Z,97594.00
2023-05-16T14:36:16.333Z,97600.03
2023-05-16T14:38:45.494Z,97580.66
2023-05-16T14:41:13.218Z,97595.19
2023-05-16T14:43:41.003Z,97579.16
2023-05-16T14:46:08.850Z,97586.97
2023-05-16T14:48:36.640Z,97597.13
2023-05-16T14:51:04.889Z,97586.66
2023-05-16T14:53:32.710Z,97600.59
2023-05-16T14:56:02.869Z,97605.34
2023-05-16T14:58:30.692Z,97616.53
2023-05-16T15:00:58.638Z,97603.41
2023-05-16T15:03:26.528Z,97606.00
2023-05-16T15:05:54.768Z,97602.94
2023-05-16T15:08:22.832Z,97614.69
2023-05-16T15:10:50.598Z,97619.22
2023-05-16T15:13:19.720Z,97607.09
2023-05-16T15:15:47.527Z,97618.56
2023-05-16T15:18:15.343Z,97610.22
2023-05-16T15:20:43.104Z,97614.78
2023-05-16T15:23:12.026Z,97630.09
2023-05-16T15:25:39.802Z,97617.81
2023-05-16T15:28:07.618Z,97627.09
2023-05-16T15:30:36.840Z,97616.25
2023-05-16T15:33:04.678Z,97617.41
2023-05-16T15:35:32.592Z,97625.13
2023-05-16T15:38:00.384Z,97630.59
2023-05-16T15:40:28.192Z,97633.50
2023-05-16T15:42:56.235Z,97626.75
2023-05-16T15:45:24.045Z,97640.91
2023-05-16T15:47:53.211Z,97637.53
2023-05-16T15:50:20.990Z,97640.72
2023-05-16T15:52:49.077Z,97631.59
2023-05-16T15:55:16.919Z,97638.06
2023-05-16T15:57:44.800Z,97642.41
2023-05-16T16:00:13.661Z,97635.88
2023-05-16T16:02:43.502Z,97633.09
2023-05-16T16:05:12.904Z,97630.94
2023-05-16T16:07:40.675Z,97621.03
2023-05-16T16:10:09.797Z,97616.44
2023-05-16T16:12:37.588Z,97622.00
2023-05-16T16:15:06.610Z,97620.75
2023-05-16T16:17:34.484Z,97613.25
2023-05-16T16:20:02.290Z,97620.63
2023-05-16T16:22:31.491Z,97613.28
2023-05-16T16:25:00.568Z,97620.06
2023-05-16T16:27:28.399Z,97603.00
2023-05-16T16:29:56.350Z,97605.28
2023-05-16T16:32:24.200Z,97605.97
2023-05-16T16:34:52.021Z,97601.28
2023-05-16T16:37:20.741Z,97602.69
2023-05-16T16:39:49.879Z,97607.47
2023-05-16T16:42:17.642Z,97598.88
2023-05-16T16:44:45.531Z,97605.78
2023-05-16T16:47:13.354Z,97601.75
2023-05-16T16:49:41.700Z,97604.00
2023-05-16T16:52:09.626Z,97594.91
2023-05-16T16:54:37.395Z,97594.91
2023-05-16T16:57:07.015Z,97596.41
2023-05-16T16:59:35.968Z,97596.47
2023-05-16T17:02:03.777Z,97590.78
2023-05-16T17:04:31.775Z,97604.13
2023-05-16T17:06:59.526Z,97603.03
2023-05-16T17:09:27.285Z,97610.66
2023-05-16T17:11:55.021Z,97624.13
2023-05-16T17:14:24.244Z,97619.19
2023-05-16T17:16:52.068Z,97613.06
2023-05-16T17:19:19.910Z,97617.56
2023-05-16T17:21:47.788Z,97619.66
2023-05-16T17:24:15.552Z,97615.34
2023-05-16T17:26:43.429Z,97625.28
2023-05-16T17:29:11.759Z,97618.81
2023-05-16T17:31:41.032Z,97615.25
2023-05-16T17:34:08.822Z,97642.78
2023-05-16T17:36:38.042Z,97629.88
2023-05-16T17:39:08.392Z,97634.09
2023-05-16T17:41:36.302Z,97636.50
2023-05-16T17:44:06.693Z,97642.03
2023-05-16T17:46:34.605Z,97635.91
2023-05-16T17:49:04.409Z,97628.28
2023-05-16T17:51:46.473Z,97651.53
2023-05-16T17:54:14.280Z,97645.88
2023-05-16T17:56:42.796Z,97657.78
2023-05-16T17:59:10.860Z,97648.06
2023-05-16T18:01:39.695Z,97643.34
2023-05-16T18:04:09.346Z,97654.28
2023-05-16T18:06:38.677Z,97648.59
2023-05-16T18:09:09.652Z,97658.63
2023-05-16T18:11:38.570Z,97644.31
2023-05-16T18:14:06.544Z,97653.13
2023-05-16T18:16:34.288Z,97653.31
2023-05-16T18:19:02.343Z,97664.22
2023-05-16T18:21:31.560Z,97662.53
2023-05-16T18:23:59.587Z,97666.78
2023-05-16T18:26:28.902Z,97662.34
2023-05-16T18:28:56.761Z,97668.75
2023-05-16T18:31:24.575Z,97677.66
2023-05-16T18:33:52.448Z,97671.72
2023-05-16T18:36:20.218Z,97681.47
2023-05-16T18:38:49.410Z,97678.00
2023-05-16T18:41:17.182Z,97683.13
2023-05-16T18:43:45.072Z,97685.69
2023-05-16T18:46:12.842Z,97687.91
2023-05-16T18:48:40.595Z,97694.91
2023-05-16T18:51:08.455Z,97700.47
2023-05-16T18:53:36.555Z,97704.06
2023-05-16T18:56:05.910Z,97707.06
2023-05-16T18:58:33.693Z,97703.69
2023-05-16T19:01:01.770Z,97702.50
2023-05-16T19:03:29.604Z,97701.03
2023-05-16T19:05:57.691Z,97701.34
2023-05-16T19:08:29.204Z,97704.16
2023-05-16T19:11:01.803Z,97696.13
2023-05-16T19:13:32.223Z,97712.91
2023-05-16T19:16:00.088Z,97717.25
2023-05-16T19:18:28.185Z,97726.25
2023-05-16T19:20:56.098Z,97727.31
2023-05-16T19:23:23.887Z,97732.22
2023-05-16T19:25:51.732Z,97741.56
2023-05-16T19:28:19.473Z,97741.56
2023-05-16T19:30:48.634Z,97749.66
2023-05-16T19:33:16.585Z,97758.88
2023-05-16T19:35:44.344Z,97760.59
2023-05-16T19:38:12.124Z,97767.78
2023-05-16T19:40:39.968Z,97765.34
2023-05-16T19:43:08.851Z,97768.06
2023-05-16T19:45:37.284Z,97769.97
2023-05-16T19:48:07.572Z,97776.56
2023-05-16T19:50:35.457Z,97772.41
2023-05-16T19:53:04.115Z,97780.75
2023-05-16T19:55:32.203Z,97753.09
2023-05-16T19:58:00.001Z,97778.69
2023-05-16T20:00:27.803Z,97790.72
2023-05-16T20:02:55.701Z,97791.81
2023-05-16T20:05:25.231Z,97786.72
2023-05-16T20:07:54.607Z,97796.84
2023-05-16T20:10:23.002Z,97797.41
2023-05-16T20:12:51.410Z,97804.38
2023-05-16T20:15:19.187Z,97815.59
2023-05-16T20:17:47.109Z,97822.25
2023-05-16T20:20:14.855Z,97820.06
2023-05-16T20:22:43.995Z,97824.56
2023-05-16T20:25:12.084Z,97826.09
2023-05-16T20:27:40.008Z,97825.59
2023-05-16T20:30:08.857Z,97826.69
2023-05-16T20:32:36.699Z,97827.47
2023-05-16T20:35:09.011Z,97841.13
2023-05-16T20:37:36.860Z,97845.59
2023-05-16T20:40:07.324Z,97838.69
2023-05-16T20:42:35.146Z,97842.25
2023-05-16T20:45:02.912Z,97848.25
2023-05-16T20:47:30.804Z,97842.50
2023-05-16T20:50:01.656Z,97831.78
2023-05-16T20:52:29.419Z,97843.13
2023-05-16T20:54:58.139Z,97851.97
2023-05-16T20:57:30.372Z,97852.72
2023-05-16T20:59:58.097Z,97842.81
2023-05-16T21:02:25.899Z,97851.44
2023-05-16T21:04:53.749Z,97848.25
2023-05-16T21:07:21.554Z,97851.28
2023-05-16T21:09:49.392Z,97854.09
2023-05-16T21:12:17.132Z,97864.66
2023-05-16T21:14:46.715Z,97863.97
2023-05-16T21:17:14.603Z,97867.53
2023-05-16T21:19:42.463Z,97868.03
2023-05-16T21:22:11.284Z,97867.66
2023-05-16T21:24:39.042Z,97866.88
2023-05-16T21:27:06.913Z,97871.38
2023-05-16T21:29:34.654Z,97867.44
2023-05-16T21:32:03.826Z,97871.19
2023-05-16T21:34:31.564Z,97866.91
2023-05-16T21:36:59.956Z,97873.34
2023-05-16T21:39:27.749Z,97874.50
2023-05-16T21:41:55.843Z,97875.72
2023-05-16T21:44:23.647Z,97876.78
2023-05-16T21:46:51.412Z,97876.97
2023-05-16T21:49:20.725Z,97870.31
2023-05-16T21:51:48.488Z,97877.94
2023-05-16T21:54:16.265Z,97877.09
2023-05-16T21:56:44.031Z,97884.38
2023-05-16T21:59:11.778Z,97889.59
2023-05-16T22:01:39.545Z,97901.03
2023-05-16T22:04:07.447Z,97895.78
2023-05-16T22:06:36.913Z,97891.53
2023-05-16T22:09:05.011Z,97888.03
2023-05-16T22:11:32.849Z,97890.66
2023-05-16T22:14:00.635Z,97902.25
2023-05-16T22:16:28.464Z,97897.88
2023-05-16T22:18:56.391Z,97895.44
2023-05-16T22:21:24.290Z,97900.69
2023-05-16T22:23:53.453Z,97897.44
2023-05-16T22:26:21.348Z,97893.22
2023-05-16T22:28:49.145Z,97896.06
2023-05-16T22:31:16.985Z,97885.72
2023-05-16T22:33:44.917Z,97888.50
2023-05-16T22:36:12.826Z,97895.44
2023-05-16T22:38:40.590Z,97894.66
2023-05-16T22:41:09.686Z,97896.91
2023-05-16T22:43:37.482Z,97896.03
2023-05-16T22:46:05.231Z,97901.34
2023-05-16T22:48:33.015Z,97894.28
2023-05-16T22:51:02.084Z,97897.50
2023-05-16T22:53:29.961Z,97903.00
2023-05-16T22:55:58.808Z,97896.19
2023-05-16T22:58:27.934Z,97902.22
2023-05-16T23:00:55.726Z,97903.06
2023-05-16T23:03:23.601Z,97899.66
2023-05-16T23:05:51.448Z,97899.72
2023-05-16T23:08:19.213Z,97909.44
2023-05-16T23:10:47.430Z,97907.94
2023-05-16T23:13:15.342Z,97899.53
2023-05-16T23:15:44.442Z,97899.63
2023-05-16T23:18:12.584Z,97914.22
2023-05-16T23:20:40.495Z,97914.28
2023-05-16T23:23:08.383Z,97915.25
2023-05-16T23:25:36.185Z,97916.47
2023-05-16T23:28:04.080Z,97909.69
2023-05-16T23:30:31.937Z,97913.28
2023-05-16T23:33:01.174Z,97913.50
2023-05-16T23:35:29.126Z,97911.81
2023-05-16T23:37:57.018Z,97910.19
2023-05-16T23:40:24.755Z,97910.25
2023-05-16T23:42:52.515Z,97915.56
2023-05-16T23:45:20.277Z,97912.22
2023-05-16T23:47:48.145Z,97908.97
2023-05-16T23:50:17.877Z,97905.50
2023-05-16T23:52:45.680Z,97915.97
2023-05-16T23:55:13.491Z,97912.66
2023-05-16T23:57:41.385Z,97905.16
